Flight Track Log - Related Links

Times and Time Zones

All times are in EDT time to prevent confusion due to time zone crossing. See the UCA3597 flight status page for this flight to view local times or setup timezone preferences in your user account.

Time Position Orientation Groundspeed Altitude Reporting Facility
EDT Latitude Longitude Course Direction KTS MPH feet Rate Location/Type
Mon 07:20:03 PM 42.1842 -75.9706 197° South 155 178 2,800  Level New York Center
Mon 07:21:03 PM 42.1333 -75.9917 197° South 207 238 3,800 1,200 Climbing New York Center
Mon 07:22:03 PM 42.0872 -76.0439 220° Southwest 219 252 5,200 1,500 Climbing New York Center
Mon 07:23:03 PM 42.0392 -76.0961 219° Southwest 225 259 6,800 1,450 Climbing New York Center
Mon 07:24:03 PM 41.9914 -76.1394 214° Southwest 225 259 8,100 1,300 Climbing New York Center
Mon 07:25:03 PM 41.9414 -76.1886 216° Southwest 225 259 9,400 800 Climbing New York Center
Mon 07:27:03 PM 41.8325 -76.2911 215° Southwest 245 282 10,500 833 Climbing New York Center
Mon 07:28:03 PM 41.7728 -76.3250 203° Southwest 251 289 11,900 1,250 Climbing New York Center
Mon 07:29:03 PM 41.7147 -76.3592 204° Southwest 240 276 13,000 992 Climbing New York Center
Mon 07:30:04 PM 41.6592 -76.3933 205° Southwest 240 276 13,900 450 Climbing New York Center
Mon 07:31:03 PM 41.5928 -76.4319 204° Southwest 253 291 13,900  Level New York Center
Mon 07:32:03 PM 41.5136 -76.4753 202° Southwest 270 311 13,900  Level New York Center
Mon 07:33:03 PM 41.4450 -76.5136 203° Southwest 275 316 13,900  Level New York Center
Mon 07:34:03 PM 41.3764 -76.5522 203° Southwest 275 316 13,900  Level New York Center
Mon 07:35:03 PM 41.3144 -76.5856 202° Southwest 275 316 13,900  Level New York Center
Mon 07:36:03 PM 41.2394 -76.6286 203° Southwest 275 316 13,900  Level New York Center
Mon 07:37:03 PM 41.1836 -76.6625 205° Southwest 275 316 13,900  Level New York Center
Mon 07:38:03 PM 41.1086 -76.7056 203° Southwest 275 316 13,900  Level New York Center
Mon 07:39:03 PM 41.0378 -76.7461 203° Southwest 275 316 13,900  Level New York Center
Mon 07:40:03 PM 40.9692 -76.7842 203° Southwest 275 316 13,900  Level New York Center
Mon 07:41:03 PM 40.8961 -76.8269 204° Southwest 275 316 13,900  Level New York Center
Mon 07:42:03 PM 40.8317 -76.8625 203° Southwest 275 316 13,900  Level New York Center
Mon 07:43:03 PM 40.7550 -76.8967 199° South 270 311 13,900  Level New York Center
Mon 07:44:03 PM 40.6894 -76.9156 192° South 270 311 13,900 50 Level New York Center
Mon 07:45:03 PM 40.6131 -76.9417 195° South 265 305 14,000 50 Climbing New York Center
Mon 07:46:03 PM 40.5411 -76.9622 192° South 265 305 14,000  Level New York Center
Mon 07:47:03 PM 40.4708 -76.9861 194° South 265 305 14,000  Level New York Center
Mon 07:48:03 PM 40.4011 -77.0044 191° South 265 305 14,000 -566 Level New York Center
Mon 07:50:35 PM 40.2167 -77.0667 194° South 274 315 12,000 -816 Descending Potomac TRACON
Mon 07:51:29 PM 40.1500 -77.0833 191° South 275 316 11,200 -1,000 Descending Potomac TRACON
Mon 07:52:23 PM 40.0833 -77.1000 191° South 275 316 10,200 -1,053 Descending Potomac TRACON
Mon 07:53:23 PM 40.0167 -77.1333 201° Southwest 268 308 9,200 -600 Descending Potomac TRACON
Mon 07:54:23 PM 39.9333 -77.1500 189° South 259 298 9,000 -150 Descending Potomac TRACON
Mon 07:55:23 PM 39.8833 -77.1833 207° Southwest 248 285 8,900 -524 Descending Potomac TRACON
Mon 07:56:29 PM 39.8000 -77.2333 205° Southwest 258 297 7,900 -850 Descending Potomac TRACON
Mon 07:57:23 PM 39.7500 -77.2500 194° South 258 297 7,200 -750 Descending Potomac TRACON
Mon 07:58:29 PM 39.6667 -77.2833 197° South 255 293 6,400 -714 Descending Potomac TRACON
Mon 07:59:29 PM 39.6000 -77.3000 191° South 250 288 5,700 -678 Descending Potomac TRACON
Mon 08:00:24 PM 39.5333 -77.3333 201° Southwest 247 284 5,100 -694 Descending Potomac TRACON
Mon 08:01:30 PM 39.4667 -77.3500 191° South 239 275 4,300 -524 Descending Potomac TRACON
Mon 08:02:30 PM 39.4000 -77.3667 191° South 239 275 4,000 -158 Descending Potomac TRACON
Mon 08:03:24 PM 39.3500 -77.3833 194° South 233 268 4,000 -200 Level Potomac TRACON
Mon 08:04:30 PM 39.2833 -77.4167 201° Southwest 235 270 3,600 -476 Descending Potomac TRACON
Mon 08:05:30 PM 39.2167 -77.4333 191° South 235 270 3,000 -298 Descending Potomac TRACON
Mon 08:06:31 PM 39.1500 -77.4333 180° South 231 266 3,000 -94 Level Potomac TRACON
Mon 08:07:37 PM 39.0833 -77.4333 180° South 226 260 2,800 -600 Descending Potomac TRACON
Mon 08:08:31 PM 39.0333 -77.4333 180° South 185 213 1,800 -947 Descending Potomac TRACON
Mon 08:09:31 PM 39.0000 -77.4333 180° South 129 148 1,000 -800 Descending Potomac TRACON
Mon 08:11:00 PM 38.9474 -77.4599 180° South  Level Estimated
Mon 08:18:00 PM 38.9474 -77.4599 349° North  Level Estimated
Mon 08:19:00 PM 38.9474 -77.4599 349° North  Level Estimated

Login

Don't have an account? Register now (free) for customized features, flight alerts, and more!